createdAt,value
2023-03-15T00:01:16.656Z,18.30
2023-03-15T00:03:44.244Z,18.90
2023-03-15T00:06:11.470Z,23.75
2023-03-15T00:08:38.204Z,17.30
2023-03-15T00:11:04.821Z,26.35
2023-03-15T00:13:31.766Z,15.80
2023-03-15T00:16:00.512Z,18.48
2023-03-15T00:18:27.831Z,18.58
2023-03-15T00:20:54.560Z,20.63
2023-03-15T00:23:21.228Z,18.58
2023-03-15T00:25:48.676Z,16.00
2023-03-15T00:28:15.301Z,22.02
2023-03-15T00:30:42.077Z,19.67
2023-03-15T00:33:09.202Z,16.92
2023-03-15T00:35:39.997Z,22.98
2023-03-15T00:38:07.417Z,20.17
2023-03-15T00:40:33.906Z,15.85
2023-03-15T00:43:00.317Z,17.75
2023-03-15T00:45:26.853Z,19.10
2023-03-15T00:47:54.821Z,21.33
2023-03-15T00:50:23.002Z,20.40
2023-03-15T00:52:49.565Z,17.45
2023-03-15T00:55:19.122Z,15.73
2023-03-15T00:57:46.243Z,22.80
2023-03-15T01:00:20.524Z,18.95
2023-03-15T01:02:47.615Z,23.73
2023-03-15T01:05:14.183Z,20.98
2023-03-15T01:07:40.922Z,22.63
2023-03-15T01:10:08.355Z,19.73
2023-03-15T01:12:34.966Z,28.15
2023-03-15T01:15:05.734Z,24.75
2023-03-15T01:17:32.335Z,21.50
2023-03-15T01:19:59.590Z,20.08
2023-03-15T01:22:26.988Z,17.10
2023-03-15T01:24:53.472Z,20.58
2023-03-15T01:27:19.942Z,18.73
2023-03-15T01:29:46.419Z,20.92
2023-03-15T01:32:13.220Z,21.98
2023-03-15T01:34:39.814Z,18.80
2023-03-15T01:37:06.305Z,24.77
2023-03-15T01:39:32.783Z,22.63
2023-03-15T01:41:59.298Z,22.70
2023-03-15T01:44:50.838Z,27.23
2023-03-15T01:47:17.290Z,20.10
2023-03-15T01:50:08.183Z,20.58
2023-03-15T01:52:43.567Z,15.80
2023-03-15T01:55:14.895Z,18.00
2023-03-15T01:57:56.002Z,17.98
2023-03-15T02:00:22.643Z,14.40
2023-03-15T02:03:00.971Z,20.00
2023-03-15T02:05:33.863Z,22.73
2023-03-15T02:08:02.482Z,18.83
2023-03-15T02:10:37.780Z,20.48
2023-03-15T02:13:05.464Z,27.13
2023-03-15T02:15:32.223Z,24.13
2023-03-15T02:17:58.670Z,21.50
2023-03-15T02:20:37.808Z,26.30
2023-03-15T02:23:12.944Z,31.30
2023-03-15T02:25:39.371Z,34.17
2023-03-15T02:28:08.146Z,25.50
2023-03-15T02:30:35.695Z,21.02
2023-03-15T02:33:07.156Z,28.60
2023-03-15T02:35:33.638Z,23.23
2023-03-15T02:38:02.536Z,18.42
2023-03-15T02:40:30.303Z,20.67
2023-03-15T02:43:05.609Z,20.92
2023-03-15T02:45:33.596Z,19.15
2023-03-15T02:48:03.551Z,21.58
2023-03-15T02:50:30.008Z,18.60
2023-03-15T02:52:56.470Z,20.08
2023-03-15T02:55:23.010Z,21.95
2023-03-15T02:57:49.742Z,18.40
2023-03-15T03:00:16.627Z,22.67
2023-03-15T03:02:46.081Z,21.85
2023-03-15T03:05:14.880Z,20.50
2023-03-15T03:07:44.388Z,15.32
2023-03-15T03:10:16.168Z,19.17
2023-03-15T03:12:42.911Z,19.13
2023-03-15T03:15:10.102Z,18.60
2023-03-15T03:17:38.426Z,16.63
2023-03-15T03:20:09.929Z,19.93
2023-03-15T03:22:37.532Z,17.67
2023-03-15T03:25:04.884Z,20.35
2023-03-15T03:27:31.464Z,20.45
2023-03-15T03:29:59.108Z,18.73
2023-03-15T03:32:25.664Z,19.80
2023-03-15T03:34:52.215Z,16.55
2023-03-15T03:37:19.642Z,17.77
2023-03-15T03:39:46.402Z,20.88
2023-03-15T03:42:14.319Z,15.68
2023-03-15T03:44:41.288Z,18.92
2023-03-15T03:47:08.255Z,16.75
2023-03-15T03:49:34.879Z,17.95
2023-03-15T03:52:01.559Z,17.20
2023-03-15T03:54:28.137Z,17.80
2023-03-15T03:56:54.612Z,17.17
2023-03-15T03:59:21.080Z,15.38
2023-03-15T04:01:48.295Z,17.90
2023-03-15T04:04:14.815Z,15.45
2023-03-15T04:06:45.707Z,15.75
2023-03-15T04:09:13.905Z,14.90
2023-03-15T04:11:45.269Z,15.38
2023-03-15T04:14:13.416Z,15.20
2023-03-15T04:16:40.514Z,17.08
2023-03-15T04:19:07.868Z,16.17
2023-03-15T04:21:34.931Z,15.85
2023-03-15T04:24:02.026Z,15.25
2023-03-15T04:26:29.237Z,16.77
2023-03-15T04:28:57.444Z,17.02
2023-03-15T04:31:27.709Z,16.73
2023-03-15T04:33:54.808Z,16.60
2023-03-15T04:36:22.480Z,17.52
2023-03-15T04:38:49.902Z,17.77
2023-03-15T04:41:17.781Z,15.57
2023-03-15T04:43:45.125Z,18.27
2023-03-15T04:46:11.961Z,20.20
2023-03-15T04:48:38.364Z,19.42
2023-03-15T04:51:04.945Z,20.17
2023-03-15T04:53:31.419Z,19.83
2023-03-15T04:55:57.894Z,17.10
2023-03-15T04:58:24.311Z,14.82
2023-03-15T05:00:52.413Z,12.82
2023-03-15T05:03:18.932Z,16.00
2023-03-15T05:05:45.732Z,12.48
2023-03-15T05:08:12.217Z,10.90
2023-03-15T05:10:41.774Z,12.23
2023-03-15T05:13:08.371Z,10.93
2023-03-15T05:15:34.845Z,11.70
2023-03-15T05:18:01.269Z,15.98
2023-03-15T05:20:27.753Z,16.00
2023-03-15T05:22:54.305Z,14.00
2023-03-15T05:25:20.909Z,15.30
2023-03-15T05:27:47.534Z,20.25
2023-03-15T05:30:15.760Z,15.63
2023-03-15T05:32:44.701Z,15.15
2023-03-15T05:35:13.280Z,17.98
2023-03-15T05:37:40.235Z,19.20
2023-03-15T05:40:10.323Z,19.25
2023-03-15T05:42:37.222Z,19.73
2023-03-15T05:45:03.984Z,19.50
2023-03-15T05:47:32.057Z,17.13
2023-03-15T05:49:59.541Z,16.65
2023-03-15T05:52:26.376Z,21.75
2023-03-15T05:54:52.897Z,21.52
2023-03-15T05:57:19.457Z,21.52
2023-03-15T05:59:45.917Z,19.67
2023-03-15T06:02:12.416Z,21.70
2023-03-15T06:04:38.951Z,19.25
2023-03-15T06:07:05.717Z,21.25
2023-03-15T06:09:32.364Z,18.95
2023-03-15T06:11:59.104Z,18.42
2023-03-15T06:14:27.225Z,17.70
2023-03-15T06:16:54.246Z,17.90
2023-03-15T06:19:21.385Z,19.42
2023-03-15T06:21:48.499Z,20.33
2023-03-15T06:24:15.058Z,21.10
2023-03-15T06:26:41.555Z,19.33
2023-03-15T06:29:08.133Z,17.90
2023-03-15T06:31:34.650Z,23.15
2023-03-15T06:34:01.563Z,17.33
2023-03-15T06:36:28.109Z,19.42
2023-03-15T06:38:54.623Z,20.27
2023-03-15T06:41:21.475Z,16.75
2023-03-15T06:43:47.965Z,20.60
2023-03-15T06:46:14.613Z,19.67
2023-03-15T06:48:42.317Z,21.10
2023-03-15T06:51:09.278Z,20.50
2023-03-15T06:53:35.896Z,20.08
2023-03-15T06:56:02.397Z,19.02
2023-03-15T06:58:28.909Z,21.58
2023-03-15T07:00:55.350Z,19.30
2023-03-15T07:03:23.588Z,19.02
2023-03-15T07:05:52.591Z,19.75
2023-03-15T07:08:19.551Z,19.80
2023-03-15T07:10:46.645Z,20.85
2023-03-15T07:13:13.294Z,22.90
2023-03-15T07:15:39.999Z,25.45
2023-03-15T07:18:06.496Z,21.25
2023-03-15T07:20:33.071Z,24.48
2023-03-15T07:22:59.544Z,22.95
2023-03-15T07:25:26.262Z,23.05
2023-03-15T07:27:53.471Z,21.92
2023-03-15T07:30:21.157Z,25.98
2023-03-15T07:32:47.912Z,23.10
2023-03-15T07:35:14.512Z,25.63
2023-03-15T07:37:44.300Z,23.85
2023-03-15T07:40:12.604Z,23.77
2023-03-15T07:42:40.615Z,26.95
2023-03-15T07:45:07.939Z,25.58
2023-03-15T07:47:34.938Z,24.27
2023-03-15T07:50:01.521Z,26.25
2023-03-15T07:52:28.006Z,27.30
2023-03-15T07:54:54.461Z,25.00
2023-03-15T07:57:20.971Z,25.88
2023-03-15T07:59:47.491Z,26.60
2023-03-15T08:02:14.555Z,25.67
2023-03-15T08:04:41.594Z,24.35
2023-03-15T08:07:08.111Z,26.58
2023-03-15T08:09:34.745Z,26.17
2023-03-15T08:12:01.769Z,27.08
2023-03-15T08:14:30.046Z,26.50
2023-03-15T08:16:56.466Z,27.90
2023-03-15T08:19:22.954Z,27.27
2023-03-15T08:21:49.426Z,29.73
2023-03-15T08:24:15.886Z,28.23
2023-03-15T08:26:45.478Z,27.23
2023-03-15T08:29:11.905Z,25.63
2023-03-15T08:31:38.649Z,27.15
2023-03-15T08:34:05.100Z,25.20
2023-03-15T08:36:32.523Z,25.52
2023-03-15T08:38:59.045Z,26.10
2023-03-15T08:41:25.569Z,26.58
2023-03-15T08:43:52.159Z,24.92
2023-03-15T08:46:21.816Z,23.20
2023-03-15T08:48:48.483Z,25.70
2023-03-15T08:51:14.969Z,30.30
2023-03-15T08:53:41.443Z,28.23
2023-03-15T08:56:08.081Z,25.23
2023-03-15T08:58:35.361Z,22.65
2023-03-15T09:01:01.837Z,26.90
2023-03-15T09:03:28.328Z,26.13
2023-03-15T09:05:58.564Z,24.35
2023-03-15T09:08:26.373Z,26.17
2023-03-15T09:10:56.977Z,25.33
2023-03-15T09:13:24.622Z,30.75
2023-03-15T09:15:52.248Z,27.95
2023-03-15T09:18:19.286Z,24.52
2023-03-15T09:20:46.038Z,27.88
2023-03-15T09:23:12.712Z,23.80
2023-03-15T09:25:39.594Z,22.80
2023-03-15T09:28:08.794Z,30.30
2023-03-15T09:30:36.749Z,25.17
2023-03-15T09:33:03.777Z,27.05
2023-03-15T09:35:30.335Z,25.95
2023-03-15T09:37:57.104Z,23.88
2023-03-15T09:40:29.540Z,21.55
2023-03-15T09:43:08.702Z,23.40
2023-03-15T09:45:59.537Z,24.98
2023-03-15T09:48:26.060Z,24.48
2023-03-15T09:51:09.093Z,26.83
2023-03-15T09:53:47.613Z,26.13
2023-03-15T09:56:32.219Z,25.40
2023-03-15T09:59:01.640Z,27.15
2023-03-15T10:01:40.690Z,25.65
2023-03-15T10:04:18.649Z,26.73
2023-03-15T10:06:49.741Z,21.52
2023-03-15T10:09:20.718Z,23.02
2023-03-15T10:12:03.362Z,24.52
2023-03-15T10:14:46.816Z,21.05
2023-03-15T10:17:16.359Z,19.38
2023-03-15T10:19:51.067Z,18.80
2023-03-15T10:22:30.598Z,23.95
2023-03-15T10:25:15.526Z,18.65
2023-03-15T10:27:52.322Z,20.65
2023-03-15T10:30:23.841Z,17.00
2023-03-15T10:32:59.644Z,20.20
2023-03-15T10:35:26.558Z,15.85
2023-03-15T10:37:53.202Z,19.85
2023-03-15T10:40:47.037Z,19.17
2023-03-15T10:43:36.761Z,18.13
2023-03-15T10:46:11.612Z,19.15
2023-03-15T10:48:55.150Z,17.40
2023-03-15T10:51:21.519Z,21.25
2023-03-15T10:53:53.846Z,14.63
2023-03-15T10:56:26.076Z,19.55
2023-03-15T10:59:09.496Z,17.23
2023-03-15T11:01:38.317Z,15.68
2023-03-15T11:04:21.403Z,14.70
2023-03-15T11:06:56.964Z,14.60
2023-03-15T11:09:26.542Z,16.08
2023-03-15T11:12:01.277Z,13.63
2023-03-15T11:14:34.708Z,14.75
2023-03-15T11:17:02.781Z,15.60
2023-03-15T11:19:32.129Z,11.27
2023-03-15T11:24:28.891Z,14.25
2023-03-15T11:29:26.885Z,16.02
2023-03-15T11:31:56.195Z,15.38
2023-03-15T11:34:36.942Z,13.63
2023-03-15T11:37:20.752Z,16.98
2023-03-15T11:40:30.164Z,11.35
2023-03-15T11:43:19.540Z,13.07
2023-03-15T11:48:46.963Z,14.48
2023-03-15T11:51:14.196Z,12.40
2023-03-15T11:53:48.451Z,10.55
2023-03-15T11:56:26.399Z,10.30
2023-03-15T11:59:12.836Z,14.30
2023-03-15T12:01:45.790Z,12.48
2023-03-15T12:04:35.506Z,8.68
2023-03-15T12:07:29.822Z,11.77
2023-03-15T12:10:02.785Z,13.02
2023-03-15T12:12:29.142Z,14.10
2023-03-15T12:15:35.320Z,11.25
2023-03-15T12:18:09.014Z,12.38
2023-03-15T12:20:38.218Z,9.73
2023-03-15T12:23:21.019Z,14.73
2023-03-15T12:25:56.712Z,10.25
2023-03-15T12:28:38.357Z,10.48
2023-03-15T12:31:14.151Z,8.52
2023-03-15T12:33:48.151Z,16.45
2023-03-15T12:36:20.671Z,13.65
2023-03-15T12:39:15.102Z,10.98
2023-03-15T12:41:43.967Z,13.23
2023-03-15T12:44:32.961Z,14.35
2023-03-15T12:47:03.651Z,11.18
2023-03-15T12:49:31.889Z,14.30
2023-03-15T12:52:04.496Z,14.85
2023-03-15T12:54:59.834Z,13.40
2023-03-15T12:57:36.494Z,10.55
2023-03-15T13:00:12.752Z,7.85
2023-03-15T13:03:10.207Z,13.60
2023-03-15T13:06:03.786Z,9.38
2023-03-15T13:08:51.660Z,9.23
2023-03-15T13:11:56.959Z,9.82
2023-03-15T13:15:11.637Z,8.55
2023-03-15T13:17:51.471Z,11.18
2023-03-15T13:20:37.292Z,12.45
2023-03-15T13:23:26.865Z,12.57
2023-03-15T13:26:17.632Z,9.70
2023-03-15T13:28:52.103Z,7.30
2023-03-15T13:31:24.558Z,10.40
2023-03-15T13:33:57.443Z,12.13
2023-03-15T13:36:46.228Z,12.00
2023-03-15T13:39:25.879Z,11.80
2023-03-15T13:44:27.063Z,11.20
2023-03-15T13:46:57.288Z,9.68
2023-03-15T13:49:23.991Z,9.85
2023-03-15T13:51:53.028Z,13.05
2023-03-15T13:54:33.694Z,9.23
2023-03-15T13:57:14.281Z,10.07
2023-03-15T13:59:47.348Z,8.98
2023-03-15T14:02:25.051Z,8.07
2023-03-15T14:04:56.145Z,9.98
2023-03-15T14:07:25.157Z,10.52
2023-03-15T14:10:37.243Z,11.07
2023-03-15T14:13:22.151Z,15.50
2023-03-15T14:15:48.737Z,8.70
2023-03-15T14:18:20.546Z,9.75
2023-03-15T14:20:54.742Z,12.30
2023-03-15T14:23:24.918Z,10.20
2023-03-15T14:26:13.623Z,10.40
2023-03-15T14:28:41.152Z,6.82
2023-03-15T14:31:07.996Z,9.15
2023-03-15T14:33:39.319Z,10.90
2023-03-15T14:36:20.874Z,7.65
2023-03-15T14:38:55.796Z,7.68
2023-03-15T14:41:28.340Z,8.18
2023-03-15T14:43:54.762Z,8.15
2023-03-15T14:46:21.378Z,5.65
2023-03-15T14:48:49.818Z,11.50
2023-03-15T14:51:19.394Z,14.45
2023-03-15T14:53:48.437Z,10.30
2023-03-15T14:56:14.868Z,9.60
2023-03-15T14:58:42.460Z,10.80
2023-03-15T15:01:13.972Z,10.77
2023-03-15T15:03:48.382Z,10.35
2023-03-15T15:06:16.314Z,10.10
2023-03-15T15:08:45.610Z,7.43
2023-03-15T15:11:12.758Z,9.38
2023-03-15T15:13:40.154Z,6.70
2023-03-15T15:16:07.618Z,9.15
2023-03-15T15:18:36.377Z,8.52
2023-03-15T15:21:19.816Z,7.82
2023-03-15T15:23:57.949Z,8.68
2023-03-15T15:26:27.894Z,10.27
2023-03-15T15:28:54.657Z,11.38
2023-03-15T15:31:24.016Z,9.82
2023-03-15T15:36:52.832Z,7.45
2023-03-15T15:39:26.078Z,9.45
2023-03-15T15:41:52.607Z,9.48
2023-03-15T15:44:21.220Z,9.38
2023-03-15T15:46:47.875Z,9.68
2023-03-15T15:49:14.580Z,11.18
2023-03-15T15:51:45.738Z,9.23
2023-03-15T15:54:22.875Z,9.85
2023-03-15T15:56:52.180Z,7.05
2023-03-15T15:59:19.201Z,7.88
2023-03-15T16:01:59.711Z,7.25
2023-03-15T16:04:28.295Z,6.50
2023-03-15T16:06:58.913Z,6.63
2023-03-15T16:09:28.668Z,10.63
2023-03-15T16:11:55.301Z,9.70
2023-03-15T16:14:21.796Z,10.20
2023-03-15T16:16:48.504Z,6.25
2023-03-15T16:19:14.974Z,8.70
2023-03-15T16:21:45.253Z,5.90
2023-03-15T16:24:19.619Z,5.82
2023-03-15T16:26:48.072Z,13.82
2023-03-15T16:29:18.257Z,6.23
2023-03-15T16:31:45.254Z,10.73
2023-03-15T16:34:13.934Z,9.05
2023-03-15T16:36:43.997Z,7.03
2023-03-15T16:39:15.373Z,10.13
2023-03-15T16:41:42.365Z,7.60
2023-03-15T16:44:17.337Z,9.15
2023-03-15T16:46:44.215Z,9.20
2023-03-15T16:49:11.029Z,6.53
2023-03-15T16:51:41.102Z,8.10
2023-03-15T16:54:19.633Z,6.95
2023-03-15T16:56:51.226Z,16.42
2023-03-15T16:59:18.149Z,11.10
2023-03-15T17:01:45.885Z,8.82
2023-03-15T17:04:13.795Z,9.52
2023-03-15T17:06:41.819Z,10.98
2023-03-15T17:09:13.902Z,8.68
2023-03-15T17:11:43.127Z,11.73
2023-03-15T17:14:30.609Z,9.98
2023-03-15T17:16:57.415Z,8.15
2023-03-15T17:19:24.065Z,10.27
2023-03-15T17:21:51.849Z,7.70
2023-03-15T17:24:18.706Z,8.73
2023-03-15T17:26:45.788Z,10.40
2023-03-15T17:29:15.462Z,8.48
2023-03-15T17:31:42.441Z,7.18
2023-03-15T17:34:09.016Z,8.70
2023-03-15T17:36:40.942Z,8.48
2023-03-15T17:39:13.510Z,9.27
2023-03-15T17:41:45.162Z,9.70
2023-03-15T17:44:11.738Z,11.60
2023-03-15T17:46:38.323Z,9.52
2023-03-15T17:49:06.236Z,10.38
2023-03-15T17:51:35.196Z,9.13
2023-03-15T17:54:02.209Z,8.40
2023-03-15T17:56:29.644Z,9.20
2023-03-15T17:58:56.106Z,8.15
2023-03-15T18:01:26.050Z,8.57
2023-03-15T18:03:52.708Z,9.32
2023-03-15T18:06:20.755Z,11.43
2023-03-15T18:08:47.906Z,11.30
2023-03-15T18:11:25.934Z,14.07
2023-03-15T18:13:53.243Z,6.30
2023-03-15T18:16:19.845Z,8.75
2023-03-15T18:18:46.444Z,10.38
2023-03-15T18:21:19.026Z,10.02
2023-03-15T18:23:45.602Z,10.45
2023-03-15T18:26:13.110Z,9.45
2023-03-15T18:28:40.330Z,9.43
2023-03-15T18:31:14.533Z,10.23
2023-03-15T18:33:41.199Z,10.15
2023-03-15T18:36:07.777Z,8.10
2023-03-15T18:38:34.554Z,9.93
2023-03-15T18:41:01.052Z,12.85
2023-03-15T18:43:28.030Z,10.07
2023-03-15T18:45:54.570Z,7.47
2023-03-15T18:48:27.897Z,14.05
2023-03-15T18:51:01.638Z,11.20
2023-03-15T18:53:28.138Z,10.50
2023-03-15T18:55:54.659Z,8.15
2023-03-15T18:58:22.101Z,11.40
2023-03-15T19:00:49.074Z,11.77
2023-03-15T19:03:15.588Z,15.15
2023-03-15T19:05:42.041Z,12.85
2023-03-15T19:08:08.529Z,15.48
2023-03-15T19:10:35.026Z,24.13
2023-03-15T19:13:04.035Z,19.48
2023-03-15T19:15:31.105Z,16.77
2023-03-15T19:17:57.613Z,14.65
2023-03-15T19:20:24.498Z,16.88
2023-03-15T19:22:52.121Z,14.73
2023-03-15T19:25:19.365Z,12.27
2023-03-15T19:27:45.925Z,16.15
2023-03-15T19:30:18.022Z,14.75
2023-03-15T19:32:47.371Z,17.10
2023-03-15T19:37:42.327Z,11.80
2023-03-15T19:40:09.566Z,15.43
2023-03-15T19:42:36.033Z,15.02
2023-03-15T19:45:02.986Z,14.32
2023-03-15T19:47:29.554Z,14.25
2023-03-15T19:49:56.000Z,14.05
2023-03-15T19:52:22.530Z,13.18
2023-03-15T19:54:49.067Z,11.77
2023-03-15T19:57:15.498Z,17.63
2023-03-15T19:59:42.178Z,12.77
2023-03-15T20:02:13.537Z,16.13
2023-03-15T20:04:40.301Z,15.95
2023-03-15T20:07:06.849Z,18.17
2023-03-15T20:09:38.684Z,17.83
2023-03-15T20:12:14.925Z,18.45
2023-03-15T20:14:41.590Z,20.98
2023-03-15T20:17:08.105Z,20.58
2023-03-15T20:19:35.847Z,22.17
2023-03-15T20:22:02.322Z,18.73
2023-03-15T20:24:28.879Z,17.00
2023-03-15T20:26:55.425Z,19.35
2023-03-15T20:29:22.390Z,17.98
2023-03-15T20:31:49.516Z,17.33
2023-03-15T20:34:17.105Z,17.38
2023-03-15T20:36:43.616Z,20.30
2023-03-15T20:39:10.171Z,18.92
2023-03-15T20:41:38.794Z,17.27
2023-03-15T20:44:05.227Z,19.85
2023-03-15T20:46:31.711Z,16.65
2023-03-15T20:48:58.674Z,22.85
2023-03-15T20:51:25.138Z,18.35
2023-03-15T20:53:51.646Z,16.75
2023-03-15T20:56:18.195Z,20.63
2023-03-15T20:58:45.056Z,18.40
2023-03-15T21:01:16.687Z,19.55
2023-03-15T21:03:44.680Z,19.58
2023-03-15T21:06:12.060Z,19.85
2023-03-15T21:08:39.042Z,24.10
2023-03-15T21:11:06.559Z,20.67
2023-03-15T21:13:34.426Z,22.25
2023-03-15T21:16:03.845Z,19.13
2023-03-15T21:18:31.805Z,19.92
2023-03-15T21:21:07.237Z,22.55
2023-03-15T21:23:34.711Z,23.27
2023-03-15T21:26:04.091Z,20.55
2023-03-15T21:30:57.566Z,17.40
2023-03-15T21:33:25.983Z,22.20
2023-03-15T21:35:52.919Z,22.83
2023-03-15T21:38:19.357Z,28.58
2023-03-15T21:40:47.533Z,20.27
2023-03-15T21:43:14.070Z,22.30
2023-03-15T21:45:42.450Z,21.58
2023-03-15T21:48:09.179Z,20.27
2023-03-15T21:50:36.505Z,21.67
2023-03-15T21:53:03.316Z,20.75
2023-03-15T21:55:33.368Z,18.80
2023-03-15T21:58:01.841Z,18.48
2023-03-15T22:00:29.723Z,21.90
2023-03-15T22:02:56.450Z,21.30
2023-03-15T22:05:23.320Z,21.00
2023-03-15T22:07:49.862Z,19.08
2023-03-15T22:10:17.024Z,20.20
2023-03-15T22:12:43.544Z,19.90
2023-03-15T22:15:10.638Z,18.85
2023-03-15T22:17:37.148Z,20.67
2023-03-15T22:20:17.080Z,26.08
2023-03-15T22:22:45.615Z,19.65
2023-03-15T22:25:12.714Z,13.03
2023-03-15T22:27:39.997Z,24.30
2023-03-15T22:30:07.188Z,17.27
2023-03-15T22:32:33.735Z,19.15
2023-03-15T22:35:00.248Z,20.88
2023-03-15T22:37:26.993Z,18.20
2023-03-15T22:39:53.770Z,21.27
2023-03-15T22:42:20.659Z,21.88
2023-03-15T22:44:47.114Z,26.40
2023-03-15T22:47:13.601Z,18.60
2023-03-15T22:49:40.169Z,18.48
2023-03-15T22:52:07.056Z,15.95
2023-03-15T22:54:33.628Z,23.92
2023-03-15T22:57:00.127Z,17.98
2023-03-15T22:59:28.911Z,23.02
2023-03-15T23:01:56.481Z,19.02
2023-03-15T23:04:23.766Z,18.55
2023-03-15T23:06:50.421Z,19.30
2023-03-15T23:09:17.113Z,18.58
2023-03-15T23:11:43.529Z,20.48
2023-03-15T23:14:10.024Z,18.73
2023-03-15T23:16:36.546Z,19.63
2023-03-15T23:19:03.104Z,15.05
2023-03-15T23:21:29.629Z,20.42
2023-03-15T23:23:56.219Z,19.35
2023-03-15T23:26:25.310Z,21.48
2023-03-15T23:28:52.747Z,22.50
2023-03-15T23:31:19.595Z,18.30
2023-03-15T23:33:49.117Z,26.52
2023-03-15T23:36:15.808Z,18.17
2023-03-15T23:38:42.391Z,21.30
2023-03-15T23:41:09.000Z,18.83
2023-03-15T23:43:35.465Z,19.50
2023-03-15T23:46:04.295Z,19.13
2023-03-15T23:48:35.551Z,19.75
2023-03-15T23:51:02.983Z,19.73
2023-03-15T23:53:29.747Z,19.08
2023-03-15T23:55:56.219Z,20.45
2023-03-15T23:58:23.364Z,21.20
